createdAt,value
2022-12-24T00:01:03.322Z,10.50
2022-12-24T00:03:30.288Z,10.40
2022-12-24T00:05:57.159Z,10.40
2022-12-24T00:08:23.983Z,10.40
2022-12-24T00:10:54.081Z,10.40
2022-12-24T00:13:21.507Z,10.40
2022-12-24T00:15:49.225Z,10.30
2022-12-24T00:18:16.440Z,10.30
2022-12-24T00:20:49.297Z,10.30
2022-12-24T00:23:17.664Z,10.30
2022-12-24T00:25:44.920Z,10.20
2022-12-24T00:28:12.292Z,10.30
2022-12-24T00:30:40.249Z,10.20
2022-12-24T00:33:07.192Z,10.20
2022-12-24T00:35:35.069Z,10.20
2022-12-24T00:38:03.842Z,10.20
2022-12-24T00:40:31.320Z,10.10
2022-12-24T00:42:58.383Z,10.10
2022-12-24T00:45:26.965Z,10.10
2022-12-24T00:47:54.044Z,10.00
2022-12-24T00:50:20.887Z,10.00
2022-12-24T00:52:47.608Z,9.90
2022-12-24T00:55:15.575Z,9.90
2022-12-24T00:57:42.445Z,10.10
2022-12-24T01:00:09.842Z,10.00
2022-12-24T01:02:36.779Z,9.90
2022-12-24T01:05:12.751Z,9.90
2022-12-24T01:07:44.002Z,10.00
2022-12-24T01:10:13.434Z,10.00
2022-12-24T01:12:40.463Z,10.00
2022-12-24T01:15:07.972Z,10.00
2022-12-24T01:17:36.030Z,9.90
2022-12-24T01:20:04.377Z,9.90
2022-12-24T01:22:31.137Z,9.90
2022-12-24T01:24:58.147Z,10.00
2022-12-24T01:27:25.311Z,9.90
2022-12-24T01:29:52.227Z,9.80
2022-12-24T01:32:19.046Z,9.70
2022-12-24T01:34:45.755Z,9.60
2022-12-24T01:37:12.726Z,9.50
2022-12-24T01:39:39.508Z,9.40
2022-12-24T01:42:36.882Z,9.40
2022-12-24T01:45:38.459Z,9.50
2022-12-24T01:48:07.731Z,9.30
2022-12-24T01:50:34.739Z,9.40
2022-12-24T01:53:02.234Z,9.50
2022-12-24T01:55:29.045Z,9.60
2022-12-24T01:57:59.644Z,9.70
2022-12-24T02:00:26.684Z,9.70
2022-12-24T02:02:54.727Z,9.80
2022-12-24T02:05:42.976Z,9.80
2022-12-24T02:08:09.911Z,9.80
2022-12-24T02:10:36.781Z,9.90
2022-12-24T02:13:05.289Z,9.90
2022-12-24T02:15:42.818Z,9.80
2022-12-24T02:18:26.399Z,9.90
2022-12-24T02:21:12.014Z,9.90
2022-12-24T02:24:06.064Z,9.90
2022-12-24T02:26:41.827Z,10.00
2022-12-24T02:29:33.752Z,10.00
2022-12-24T02:32:05.497Z,9.90
2022-12-24T02:34:38.830Z,10.00
2022-12-24T02:37:21.572Z,10.00
2022-12-24T02:40:03.302Z,10.00
2022-12-24T02:42:42.158Z,10.00
2022-12-24T02:45:15.884Z,9.90
2022-12-24T02:47:45.494Z,10.00
2022-12-24T02:50:14.562Z,9.90
2022-12-24T02:52:44.008Z,9.80
2022-12-24T02:55:16.172Z,9.90
2022-12-24T02:57:51.784Z,9.90
2022-12-24T03:00:20.726Z,9.90
2022-12-24T03:03:07.688Z,9.90
2022-12-24T03:05:56.636Z,9.90
2022-12-24T03:08:36.054Z,9.80
2022-12-24T03:11:06.439Z,9.80
2022-12-24T03:13:33.534Z,9.80
2022-12-24T03:16:03.368Z,9.80
2022-12-24T03:18:30.861Z,9.80
2022-12-24T03:21:20.181Z,9.80
2022-12-24T03:23:47.860Z,9.70
2022-12-24T03:26:19.190Z,9.80
2022-12-24T03:28:47.074Z,9.70
2022-12-24T03:31:14.996Z,9.70
2022-12-24T03:33:42.302Z,9.70
2022-12-24T03:36:09.864Z,9.80
2022-12-24T03:38:36.603Z,9.80
2022-12-24T03:41:03.900Z,9.80
2022-12-24T03:43:30.703Z,9.80
2022-12-24T03:45:57.624Z,10.00
2022-12-24T03:48:32.167Z,9.90
2022-12-24T03:50:59.444Z,10.00
2022-12-24T03:53:26.401Z,10.00
2022-12-24T03:55:53.164Z,9.90
2022-12-24T03:58:19.876Z,9.90
2022-12-24T04:00:46.649Z,9.80
2022-12-24T04:03:13.542Z,9.90
2022-12-24T04:05:40.310Z,9.90
2022-12-24T04:08:07.061Z,9.80
2022-12-24T04:10:33.789Z,9.80
2022-12-24T04:13:00.594Z,9.90
2022-12-24T04:15:27.311Z,9.90
2022-12-24T04:17:54.102Z,9.90
2022-12-24T04:20:20.919Z,9.90
2022-12-24T04:22:47.687Z,10.00
2022-12-24T04:25:14.574Z,10.00
2022-12-24T04:27:41.523Z,9.90
2022-12-24T04:30:09.046Z,10.00
2022-12-24T04:32:35.812Z,10.00
2022-12-24T04:35:02.557Z,10.00
2022-12-24T04:37:29.335Z,10.00
2022-12-24T04:39:56.118Z,10.00
2022-12-24T04:42:22.863Z,10.00
2022-12-24T04:44:50.349Z,10.00
2022-12-24T04:47:17.172Z,10.10
2022-12-24T04:49:44.029Z,10.10
2022-12-24T04:52:10.745Z,10.00
2022-12-24T04:54:37.562Z,9.90
2022-12-24T04:57:04.339Z,10.00
2022-12-24T04:59:31.230Z,9.90
2022-12-24T05:01:58.277Z,9.90
2022-12-24T05:04:25.308Z,9.90
2022-12-24T05:06:52.077Z,9.90
2022-12-24T05:09:18.822Z,9.90
2022-12-24T05:11:45.579Z,9.90
2022-12-24T05:14:12.380Z,9.90
2022-12-24T05:16:39.304Z,9.80
2022-12-24T05:19:06.234Z,9.80
2022-12-24T05:21:32.981Z,9.80
2022-12-24T05:24:18.383Z,9.80
2022-12-24T05:26:51.058Z,9.80
2022-12-24T05:29:18.105Z,9.80
2022-12-24T05:31:45.654Z,9.80
2022-12-24T05:34:14.022Z,9.80
2022-12-24T05:36:41.375Z,9.80
2022-12-24T05:39:15.177Z,9.80
2022-12-24T05:41:42.579Z,9.90
2022-12-24T05:44:09.317Z,9.80
2022-12-24T05:46:36.218Z,9.80
2022-12-24T05:49:03.028Z,9.90
2022-12-24T05:51:29.848Z,9.80
2022-12-24T05:53:56.596Z,9.80
2022-12-24T05:56:24.373Z,9.70
2022-12-24T05:58:52.188Z,9.80
2022-12-24T06:01:20.022Z,9.90
2022-12-24T06:03:46.900Z,9.90
2022-12-24T06:06:17.676Z,10.00
2022-12-24T06:08:44.987Z,10.00
2022-12-24T06:11:13.732Z,9.90
2022-12-24T06:13:41.562Z,10.00
2022-12-24T06:16:13.936Z,9.90
2022-12-24T06:18:41.399Z,10.00
2022-12-24T06:21:08.677Z,10.00
2022-12-24T06:23:39.127Z,10.00
2022-12-24T06:26:08.064Z,9.90
2022-12-24T06:28:37.739Z,9.80
2022-12-24T06:31:06.482Z,9.90
2022-12-24T06:33:34.455Z,9.90
2022-12-24T06:36:01.659Z,10.00
2022-12-24T06:38:31.165Z,9.90
2022-12-24T06:40:58.158Z,9.80
2022-12-24T06:43:24.937Z,9.80
2022-12-24T06:45:52.348Z,9.90
2022-12-24T06:48:19.171Z,10.00
2022-12-24T06:50:46.768Z,10.00
2022-12-24T06:53:13.647Z,9.80
2022-12-24T06:55:40.440Z,9.80
2022-12-24T06:58:07.215Z,10.00
2022-12-24T07:00:34.047Z,10.00
2022-12-24T07:03:00.922Z,10.10
2022-12-24T07:05:28.394Z,9.90
2022-12-24T07:07:55.251Z,9.90
2022-12-24T07:10:22.358Z,9.90
2022-12-24T07:12:49.593Z,9.90
2022-12-24T07:15:17.152Z,10.00
2022-12-24T07:17:44.143Z,10.00
2022-12-24T07:20:14.934Z,10.00
2022-12-24T07:22:42.788Z,10.10
2022-12-24T07:25:10.979Z,10.00
2022-12-24T07:27:38.571Z,10.00
2022-12-24T07:30:06.374Z,10.00
2022-12-24T07:32:33.206Z,10.00
2022-12-24T07:34:59.916Z,10.00
2022-12-24T07:37:26.875Z,10.00
2022-12-24T07:39:53.658Z,9.90
2022-12-24T07:42:20.620Z,9.90
2022-12-24T07:44:47.583Z,9.90
2022-12-24T07:47:14.303Z,10.00
2022-12-24T07:49:41.115Z,9.90
2022-12-24T07:52:07.910Z,9.90
2022-12-24T07:54:34.969Z,9.90
2022-12-24T07:57:01.976Z,9.90
2022-12-24T07:59:28.778Z,9.90
2022-12-24T08:01:55.646Z,9.80
2022-12-24T08:04:22.525Z,9.80
2022-12-24T08:06:49.293Z,9.80
2022-12-24T08:09:16.346Z,9.70
2022-12-24T08:11:49.662Z,9.70
2022-12-24T08:14:18.574Z,9.70
2022-12-24T08:16:45.580Z,9.80
2022-12-24T08:19:12.384Z,9.80
2022-12-24T08:21:39.183Z,9.80
2022-12-24T08:24:06.390Z,9.90
2022-12-24T08:26:33.231Z,9.90
2022-12-24T08:28:59.966Z,9.90
2022-12-24T08:31:26.838Z,10.00
2022-12-24T08:33:53.571Z,10.10
2022-12-24T08:36:20.358Z,10.10
2022-12-24T08:38:47.204Z,10.00
2022-12-24T08:41:14.004Z,9.90
2022-12-24T08:43:40.800Z,10.00
2022-12-24T08:46:07.582Z,9.90
2022-12-24T08:48:35.238Z,9.90
2022-12-24T08:51:09.357Z,10.00
2022-12-24T08:53:36.926Z,9.90
2022-12-24T08:56:09.534Z,10.00
2022-12-24T08:58:37.008Z,10.00
2022-12-24T09:01:20.358Z,10.00
2022-12-24T09:03:47.514Z,10.10
2022-12-24T09:06:15.957Z,10.10
2022-12-24T09:08:42.778Z,10.10
2022-12-24T09:11:16.377Z,10.10
2022-12-24T09:13:43.380Z,10.10
2022-12-24T09:16:10.424Z,10.10
2022-12-24T09:18:37.447Z,10.10
2022-12-24T09:21:08.586Z,10.10
2022-12-24T09:23:39.588Z,10.20
2022-12-24T09:26:10.825Z,10.20
2022-12-24T09:28:37.751Z,10.20
2022-12-24T09:31:05.880Z,10.20
2022-12-24T09:33:35.222Z,10.40
2022-12-24T09:36:03.262Z,10.30
2022-12-24T09:38:30.684Z,10.30
2022-12-24T09:41:02.449Z,10.30
2022-12-24T09:43:35.272Z,10.20
2022-12-24T09:46:13.730Z,10.20
2022-12-24T09:48:48.195Z,10.20
2022-12-24T09:51:39.264Z,10.30
2022-12-24T09:54:19.675Z,10.30
2022-12-24T09:56:48.959Z,10.30
2022-12-24T09:59:19.048Z,10.40
2022-12-24T10:01:46.406Z,10.30
2022-12-24T10:04:16.182Z,10.30
2022-12-24T10:07:53.865Z,10.20
2022-12-24T10:10:44.988Z,10.20
2022-12-24T10:13:44.369Z,10.30
2022-12-24T10:16:37.338Z,10.30
2022-12-24T10:19:37.565Z,10.30
2022-12-24T10:22:25.048Z,10.40
2022-12-24T10:25:07.409Z,10.40
2022-12-24T10:27:40.401Z,10.40
2022-12-24T10:30:20.730Z,10.60
2022-12-24T10:32:49.780Z,10.40
2022-12-24T10:35:16.543Z,10.40
2022-12-24T10:37:47.455Z,10.40
2022-12-24T10:40:25.696Z,10.50
2022-12-24T10:42:52.422Z,10.50
2022-12-24T10:45:22.933Z,10.50
2022-12-24T10:47:57.980Z,10.50
2022-12-24T10:50:51.874Z,10.60
2022-12-24T10:53:22.739Z,10.60
2022-12-24T10:55:49.698Z,10.60
2022-12-24T10:58:19.877Z,10.50
2022-12-24T11:00:51.921Z,10.50
2022-12-24T11:03:23.623Z,10.50
2022-12-24T11:06:12.485Z,10.50
2022-12-24T11:08:42.812Z,10.60
2022-12-24T11:11:21.230Z,10.60
2022-12-24T11:13:50.717Z,10.60
2022-12-24T11:16:26.550Z,10.70
2022-12-24T11:18:55.177Z,10.60
2022-12-24T11:21:33.682Z,10.70
2022-12-24T11:24:03.678Z,10.70
2022-12-24T11:26:31.380Z,10.80
2022-12-24T11:29:14.596Z,10.80
2022-12-24T11:31:43.017Z,10.80
2022-12-24T11:34:22.491Z,10.80
2022-12-24T11:36:51.314Z,10.80
2022-12-24T11:39:21.237Z,10.80
2022-12-24T11:41:51.009Z,10.80
2022-12-24T11:44:25.718Z,10.80
2022-12-24T11:46:56.675Z,10.80
2022-12-24T11:49:32.073Z,10.90
2022-12-24T11:52:11.029Z,10.90
2022-12-24T11:55:03.820Z,11.10
2022-12-24T11:57:47.985Z,11.20
2022-12-24T12:00:14.919Z,11.20
2022-12-24T12:02:46.199Z,11.10
2022-12-24T12:05:27.387Z,11.10
2022-12-24T12:08:02.288Z,11.10
2022-12-24T12:10:32.875Z,11.10
2022-12-24T12:13:15.767Z,11.20
2022-12-24T12:16:08.117Z,11.10
2022-12-24T12:18:39.752Z,11.10
2022-12-24T12:21:18.934Z,11.10
2022-12-24T12:24:00.273Z,11.20
2022-12-24T12:26:29.584Z,11.10
2022-12-24T12:29:05.981Z,11.10
2022-12-24T12:31:47.522Z,11.10
2022-12-24T12:34:17.521Z,11.10
2022-12-24T12:36:52.060Z,11.20
2022-12-24T12:39:19.097Z,11.30
2022-12-24T12:42:07.897Z,11.20
2022-12-24T12:44:41.773Z,11.20
2022-12-24T12:47:23.380Z,11.20
2022-12-24T12:50:12.057Z,11.20
2022-12-24T12:52:50.746Z,11.20
2022-12-24T12:55:27.662Z,11.30
2022-12-24T12:58:00.996Z,11.40
2022-12-24T13:00:33.492Z,11.20
2022-12-24T13:03:22.067Z,11.20
2022-12-24T13:06:07.169Z,11.30
2022-12-24T13:08:52.773Z,11.50
2022-12-24T13:11:22.466Z,11.50
2022-12-24T13:14:01.351Z,11.50
2022-12-24T13:16:48.445Z,11.70
2022-12-24T13:19:25.867Z,11.70
2022-12-24T13:21:55.769Z,11.50
2022-12-24T13:24:28.469Z,11.50
2022-12-24T13:27:07.487Z,11.50
2022-12-24T13:30:04.960Z,11.50
2022-12-24T13:32:47.223Z,11.50
2022-12-24T13:35:20.075Z,11.60
2022-12-24T13:37:50.686Z,11.60
2022-12-24T13:40:20.456Z,11.60
2022-12-24T13:42:59.402Z,11.60
2022-12-24T13:45:29.320Z,11.60
2022-12-24T13:48:13.087Z,11.70
2022-12-24T13:50:45.931Z,11.70
2022-12-24T13:53:25.973Z,11.70
2022-12-24T13:56:12.921Z,11.70
2022-12-24T13:58:56.457Z,11.70
2022-12-24T14:01:34.872Z,11.60
2022-12-24T14:04:04.192Z,11.60
2022-12-24T14:06:33.831Z,11.60
2022-12-24T14:09:16.864Z,11.80
2022-12-24T14:12:16.462Z,11.70
2022-12-24T14:14:43.718Z,11.60
2022-12-24T14:17:19.052Z,11.50
2022-12-24T14:19:49.848Z,11.50
2022-12-24T14:22:39.078Z,11.50
2022-12-24T14:25:38.410Z,11.50
2022-12-24T14:28:14.798Z,11.50
2022-12-24T14:30:41.593Z,11.60
2022-12-24T14:33:32.127Z,11.80
2022-12-24T14:35:59.998Z,11.60
2022-12-24T14:38:27.807Z,11.70
2022-12-24T14:41:31.394Z,11.70
2022-12-24T14:44:29.750Z,11.70
2022-12-24T14:47:12.963Z,11.50
2022-12-24T14:49:51.936Z,11.50
2022-12-24T14:53:04.608Z,11.30
2022-12-24T14:55:42.911Z,11.20
2022-12-24T14:58:24.391Z,11.30
2022-12-24T15:00:53.050Z,11.40
2022-12-24T15:03:22.952Z,11.60
2022-12-24T15:06:11.991Z,11.60
2022-12-24T15:08:45.689Z,11.60
2022-12-24T15:11:20.207Z,11.50
2022-12-24T15:13:56.579Z,11.40
2022-12-24T15:16:37.089Z,11.30
2022-12-24T15:19:07.930Z,11.30
2022-12-24T15:21:37.810Z,11.20
2022-12-24T15:24:04.983Z,11.10
2022-12-24T15:26:37.296Z,11.00
2022-12-24T15:29:21.270Z,10.70
2022-12-24T15:31:54.444Z,10.80
2022-12-24T15:34:28.527Z,10.60
2022-12-24T15:37:03.547Z,10.50
2022-12-24T15:39:30.756Z,10.50
2022-12-24T15:42:18.071Z,10.60
2022-12-24T15:45:12.297Z,11.00
2022-12-24T15:47:43.860Z,10.90
2022-12-24T15:50:21.603Z,11.00
2022-12-24T15:52:48.892Z,11.00
2022-12-24T15:55:40.307Z,10.80
2022-12-24T15:58:26.232Z,10.60
2022-12-24T16:01:28.539Z,10.50
2022-12-24T16:04:00.231Z,10.60
2022-12-24T16:06:28.337Z,10.70
2022-12-24T16:08:56.619Z,10.80
2022-12-24T16:11:33.526Z,10.60
2022-12-24T16:14:09.464Z,10.70
2022-12-24T16:16:41.969Z,10.50
2022-12-24T16:19:31.798Z,10.50
2022-12-24T16:22:23.329Z,10.60
2022-12-24T16:24:52.210Z,10.70
2022-12-24T16:27:18.917Z,10.60
2022-12-24T16:29:47.020Z,10.70
2022-12-24T16:32:34.831Z,10.70
2022-12-24T16:35:03.746Z,10.60
2022-12-24T16:37:30.523Z,10.50
2022-12-24T16:39:57.337Z,10.50
2022-12-24T16:42:43.074Z,10.30
2022-12-24T16:45:10.666Z,10.20
2022-12-24T16:47:42.889Z,10.20
2022-12-24T16:50:16.255Z,10.20
2022-12-24T16:52:43.031Z,10.10
2022-12-24T16:55:13.820Z,9.90
2022-12-24T16:57:42.736Z,9.70
2022-12-24T17:00:19.890Z,9.50
2022-12-24T17:02:48.286Z,9.40
2022-12-24T17:05:16.277Z,9.40
2022-12-24T17:07:43.990Z,9.20
2022-12-24T17:10:13.986Z,9.10
2022-12-24T17:12:41.497Z,9.10
2022-12-24T17:15:08.751Z,9.10
2022-12-24T17:17:35.779Z,9.00
2022-12-24T17:20:04.608Z,9.00
2022-12-24T17:22:31.576Z,9.00
2022-12-24T17:24:58.346Z,8.90
2022-12-24T17:27:25.175Z,8.80
2022-12-24T17:29:52.031Z,8.70
2022-12-24T17:32:18.791Z,8.70
2022-12-24T17:34:45.719Z,8.70
2022-12-24T17:37:12.475Z,8.70
2022-12-24T17:39:39.245Z,8.60
2022-12-24T17:42:06.052Z,8.70
2022-12-24T17:44:33.003Z,8.70
2022-12-24T17:47:01.873Z,8.60
2022-12-24T17:49:28.918Z,8.60
2022-12-24T17:51:56.119Z,8.60
2022-12-24T17:54:22.940Z,8.60
2022-12-24T17:56:49.802Z,8.80
2022-12-24T17:59:16.542Z,8.90
2022-12-24T18:01:43.428Z,8.90
2022-12-24T18:04:11.221Z,8.90
2022-12-24T18:06:45.583Z,8.90
2022-12-24T18:09:15.673Z,8.90
2022-12-24T18:11:42.485Z,8.90
2022-12-24T18:14:12.206Z,9.00
2022-12-24T18:16:40.478Z,9.10
2022-12-24T18:19:10.336Z,9.10
2022-12-24T18:21:37.618Z,9.20
2022-12-24T18:24:04.945Z,9.20
2022-12-24T18:26:33.241Z,9.30
2022-12-24T18:29:04.341Z,9.30
2022-12-24T18:31:33.637Z,9.30
2022-12-24T18:34:02.744Z,9.20
2022-12-24T18:36:29.770Z,9.30
2022-12-24T18:38:56.629Z,9.30
2022-12-24T18:41:27.142Z,9.30
2022-12-24T18:43:54.596Z,9.30
2022-12-24T18:46:27.393Z,9.40
2022-12-24T18:48:55.462Z,9.40
2022-12-24T18:51:23.807Z,9.40
2022-12-24T18:53:51.072Z,9.40
2022-12-24T18:56:20.763Z,9.50
2022-12-24T18:58:48.276Z,9.50
2022-12-24T19:01:21.959Z,9.60
2022-12-24T19:03:49.475Z,9.60
2022-12-24T19:06:17.461Z,9.50
2022-12-24T19:09:01.217Z,9.50
2022-12-24T19:11:30.739Z,9.60
2022-12-24T19:13:58.304Z,9.60
2022-12-24T19:16:26.450Z,9.60
2022-12-24T19:18:53.404Z,9.60
2022-12-24T19:21:20.548Z,9.60
2022-12-24T19:23:47.640Z,9.50
2022-12-24T19:26:17.121Z,9.60
2022-12-24T19:28:44.184Z,9.50
2022-12-24T19:31:13.960Z,9.60
2022-12-24T19:33:46.225Z,9.60
2022-12-24T19:36:16.012Z,9.50
2022-12-24T19:38:43.521Z,9.60
2022-12-24T19:41:18.766Z,9.60
2022-12-24T19:43:48.167Z,9.70
2022-12-24T19:46:18.982Z,9.60
2022-12-24T19:48:51.257Z,9.60
2022-12-24T19:51:19.199Z,9.60
2022-12-24T19:53:47.550Z,9.60
2022-12-24T19:56:16.460Z,9.60
2022-12-24T19:58:44.384Z,9.60
2022-12-24T20:01:15.929Z,9.60
2022-12-24T20:03:43.626Z,9.60
2022-12-24T20:06:10.790Z,9.60
2022-12-24T20:08:38.734Z,9.70
2022-12-24T20:11:18.012Z,9.70
2022-12-24T20:13:45.492Z,9.80
2022-12-24T20:16:18.763Z,9.70
2022-12-24T20:18:57.732Z,9.70
2022-12-24T20:21:25.489Z,9.70
2022-12-24T20:23:52.576Z,9.60
2022-12-24T20:26:22.164Z,9.60
2022-12-24T20:28:49.280Z,9.60
2022-12-24T20:31:23.888Z,9.70
2022-12-24T20:33:51.238Z,9.70
2022-12-24T20:36:20.069Z,9.80
2022-12-24T20:38:47.534Z,9.70
2022-12-24T20:41:16.631Z,9.70
2022-12-24T20:43:48.294Z,9.60
2022-12-24T20:46:19.768Z,9.70
2022-12-24T20:48:46.795Z,9.70
2022-12-24T20:51:25.848Z,9.70
2022-12-24T20:53:54.223Z,9.70
2022-12-24T20:56:21.386Z,9.70
2022-12-24T20:58:48.703Z,9.70
2022-12-24T21:01:26.263Z,9.60
2022-12-24T21:03:55.318Z,9.70
2022-12-24T21:06:23.197Z,9.60
2022-12-24T21:08:51.633Z,9.60
2022-12-24T21:11:37.791Z,9.70
2022-12-24T21:14:04.634Z,9.60
2022-12-24T21:16:32.961Z,9.60
2022-12-24T21:19:00.008Z,9.80
2022-12-24T21:21:26.798Z,9.80
2022-12-24T21:23:54.141Z,9.70
2022-12-24T21:26:20.870Z,9.60
2022-12-24T21:28:47.797Z,9.80
2022-12-24T21:31:15.351Z,9.90
2022-12-24T21:33:42.580Z,9.80
2022-12-24T21:36:11.934Z,9.80
2022-12-24T21:38:38.796Z,9.70
2022-12-24T21:41:12.525Z,9.80
2022-12-24T21:43:39.908Z,9.80
2022-12-24T21:46:09.016Z,9.90
2022-12-24T21:48:56.129Z,9.90
2022-12-24T21:51:24.325Z,9.80
2022-12-24T21:54:09.656Z,9.90
2022-12-24T21:56:56.797Z,9.80
2022-12-24T21:59:26.855Z,9.80
2022-12-24T22:01:54.500Z,9.80
2022-12-24T22:04:21.373Z,9.70
2022-12-24T22:07:06.908Z,9.90
2022-12-24T22:09:52.478Z,9.90
2022-12-24T22:12:19.965Z,9.80
2022-12-24T22:14:46.750Z,9.90
2022-12-24T22:17:15.280Z,9.80
2022-12-24T22:19:43.866Z,9.80
2022-12-24T22:22:10.935Z,9.80
2022-12-24T22:24:37.651Z,9.90
2022-12-24T22:27:04.441Z,9.90
2022-12-24T22:29:31.323Z,9.90
2022-12-24T22:31:58.017Z,9.90
2022-12-24T22:34:24.828Z,9.90
2022-12-24T22:36:51.564Z,9.90
2022-12-24T22:39:18.332Z,9.90
2022-12-24T22:41:45.097Z,10.00
2022-12-24T22:44:11.875Z,10.10
2022-12-24T22:46:38.736Z,10.00
2022-12-24T22:49:05.497Z,10.10
2022-12-24T22:51:32.293Z,10.10
2022-12-24T22:53:59.739Z,10.00
2022-12-24T22:56:26.571Z,10.10
2022-12-24T22:58:55.280Z,10.00
2022-12-24T23:01:37.840Z,10.00
2022-12-24T23:04:06.211Z,10.10
2022-12-24T23:06:33.939Z,10.10
2022-12-24T23:09:00.841Z,10.10
2022-12-24T23:11:27.638Z,10.10
2022-12-24T23:14:12.846Z,10.20
2022-12-24T23:16:39.620Z,10.10
2022-12-24T23:19:06.662Z,10.10
2022-12-24T23:21:34.508Z,10.10
2022-12-24T23:24:02.289Z,10.20
2022-12-24T23:26:29.504Z,10.30
2022-12-24T23:28:57.158Z,10.40
2022-12-24T23:31:25.502Z,10.30
2022-12-24T23:33:52.944Z,10.30
2022-12-24T23:36:20.031Z,10.20
2022-12-24T23:38:47.271Z,10.20
2022-12-24T23:41:18.755Z,10.20
2022-12-24T23:43:45.997Z,10.30
2022-12-24T23:46:14.622Z,10.30
2022-12-24T23:48:42.270Z,10.30
2022-12-24T23:51:12.104Z,10.30
2022-12-24T23:53:39.392Z,10.20
2022-12-24T23:56:07.450Z,10.20
2022-12-24T23:58:34.172Z,10.20
